createdAt,value
2023-01-08T00:00:56.389Z,12.82
2023-01-08T00:03:23.070Z,12.82
2023-01-08T00:05:49.942Z,12.81
2023-01-08T00:08:16.478Z,12.81
2023-01-08T00:10:42.810Z,12.82
2023-01-08T00:13:09.211Z,12.82
2023-01-08T00:15:35.681Z,12.82
2023-01-08T00:18:02.291Z,12.82
2023-01-08T00:20:29.239Z,12.83
2023-01-08T00:22:55.570Z,12.83
2023-01-08T00:25:21.958Z,12.83
2023-01-08T00:27:48.350Z,12.85
2023-01-08T00:30:14.802Z,12.85
2023-01-08T00:32:41.167Z,12.86
2023-01-08T00:35:07.835Z,12.87
2023-01-08T00:37:34.156Z,12.86
2023-01-08T00:40:00.537Z,12.86
2023-01-08T00:42:26.914Z,12.87
2023-01-08T00:44:53.496Z,12.86
2023-01-08T00:47:19.872Z,12.86
2023-01-08T00:49:46.223Z,12.88
2023-01-08T00:52:12.562Z,12.87
2023-01-08T00:54:39.006Z,12.88
2023-01-08T00:57:05.398Z,12.88
2023-01-08T00:59:31.721Z,12.88
2023-01-08T01:01:58.303Z,12.89
2023-01-08T01:04:26.318Z,12.90
2023-01-08T01:06:52.731Z,12.89
2023-01-08T01:09:19.116Z,12.89
2023-01-08T01:11:45.466Z,12.90
2023-01-08T01:14:12.073Z,12.90
2023-01-08T01:16:39.933Z,12.89
2023-01-08T01:19:06.388Z,12.89
2023-01-08T01:21:33.213Z,12.89
2023-01-08T01:24:05.215Z,12.89
2023-01-08T01:26:32.929Z,12.91
2023-01-08T01:28:59.853Z,12.91
2023-01-08T01:31:28.837Z,12.92
2023-01-08T01:33:55.419Z,12.91
2023-01-08T01:36:26.389Z,12.92
2023-01-08T01:38:55.091Z,12.91
2023-01-08T01:41:37.892Z,12.93
2023-01-08T01:44:42.201Z,12.93
2023-01-08T01:47:52.315Z,12.94
2023-01-08T01:50:27.573Z,12.94
2023-01-08T01:53:03.003Z,12.94
2023-01-08T01:55:31.738Z,12.94
2023-01-08T01:58:08.383Z,12.94
2023-01-08T02:00:35.171Z,12.92
2023-01-08T02:03:01.991Z,12.93
2023-01-08T02:05:38.815Z,12.94
2023-01-08T02:08:11.411Z,12.93
2023-01-08T02:10:53.492Z,12.93
2023-01-08T02:13:42.786Z,12.93
2023-01-08T02:16:18.759Z,12.92
2023-01-08T02:18:56.380Z,12.92
2023-01-08T02:21:33.050Z,12.89
2023-01-08T02:24:24.107Z,12.90
2023-01-08T02:26:53.681Z,12.86
2023-01-08T02:29:23.883Z,12.84
2023-01-08T02:31:50.343Z,12.80
2023-01-08T02:34:16.755Z,12.76
2023-01-08T02:36:57.008Z,12.74
2023-01-08T02:39:50.606Z,12.71
2023-01-08T02:42:26.059Z,12.68
2023-01-08T02:45:07.106Z,12.67
2023-01-08T02:47:42.396Z,12.66
2023-01-08T02:50:27.325Z,12.63
2023-01-08T02:53:05.840Z,12.63
2023-01-08T02:55:35.000Z,12.61
2023-01-08T02:58:03.350Z,12.61
2023-01-08T03:00:30.536Z,12.60
2023-01-08T03:03:08.259Z,12.58
2023-01-08T03:05:35.438Z,12.57
2023-01-08T03:08:02.440Z,12.55
2023-01-08T03:10:30.919Z,12.55
2023-01-08T03:13:11.907Z,12.53
2023-01-08T03:15:46.157Z,12.51
2023-01-08T03:18:18.726Z,12.50
2023-01-08T03:20:46.074Z,12.47
2023-01-08T03:23:15.103Z,12.47
2023-01-08T03:25:45.901Z,12.46
2023-01-08T03:28:18.959Z,12.44
2023-01-08T03:30:47.329Z,12.43
2023-01-08T03:33:16.648Z,12.44
2023-01-08T03:35:48.037Z,12.43
2023-01-08T03:38:22.085Z,12.44
2023-01-08T03:40:54.478Z,12.43
2023-01-08T03:43:20.875Z,12.43
2023-01-08T03:45:56.249Z,12.44
2023-01-08T03:48:24.952Z,12.44
2023-01-08T03:50:51.314Z,12.43
2023-01-08T03:53:17.798Z,12.43
2023-01-08T03:55:44.305Z,12.44
2023-01-08T03:58:10.670Z,12.43
2023-01-08T04:00:37.183Z,12.44
2023-01-08T04:03:05.854Z,12.44
2023-01-08T04:05:32.482Z,12.45
2023-01-08T04:07:59.008Z,12.45
2023-01-08T04:10:25.937Z,12.47
2023-01-08T04:12:52.296Z,12.48
2023-01-08T04:15:19.006Z,12.48
2023-01-08T04:17:45.580Z,12.51
2023-01-08T04:20:11.942Z,12.51
2023-01-08T04:22:38.255Z,12.53
2023-01-08T04:25:05.016Z,12.57
2023-01-08T04:27:31.386Z,12.58
2023-01-08T04:29:57.728Z,12.60
2023-01-08T04:32:24.166Z,12.62
2023-01-08T04:34:50.549Z,12.65
2023-01-08T04:37:16.912Z,12.67
2023-01-08T04:39:43.311Z,12.68
2023-01-08T04:42:09.657Z,12.70
2023-01-08T04:44:35.999Z,12.71
2023-01-08T04:47:02.374Z,12.72
2023-01-08T04:49:28.702Z,12.73
2023-01-08T04:51:55.039Z,12.74
2023-01-08T04:54:21.443Z,12.74
2023-01-08T04:56:51.439Z,12.74
2023-01-08T04:59:17.872Z,12.74
2023-01-08T05:01:44.518Z,12.74
2023-01-08T05:04:11.274Z,12.74
2023-01-08T05:06:37.580Z,12.76
2023-01-08T05:09:04.131Z,12.76
2023-01-08T05:11:30.455Z,12.76
2023-01-08T05:13:57.012Z,12.78
2023-01-08T05:16:23.636Z,12.78
2023-01-08T05:18:50.233Z,12.79
2023-01-08T05:21:17.021Z,12.80
2023-01-08T05:23:50.031Z,12.81
2023-01-08T05:26:17.288Z,12.81
2023-01-08T05:28:43.996Z,12.80
2023-01-08T05:31:11.647Z,12.79
2023-01-08T05:33:38.935Z,12.79
2023-01-08T05:36:07.027Z,12.77
2023-01-08T05:38:33.720Z,12.74
2023-01-08T05:41:00.174Z,12.72
2023-01-08T05:43:26.657Z,12.72
2023-01-08T05:45:53.107Z,12.70
2023-01-08T05:48:19.503Z,12.68
2023-01-08T05:50:49.399Z,12.68
2023-01-08T05:53:16.982Z,12.67
2023-01-08T05:55:43.540Z,12.66
2023-01-08T05:58:11.087Z,12.66
2023-01-08T06:00:38.116Z,12.65
2023-01-08T06:03:05.177Z,12.65
2023-01-08T06:05:32.458Z,12.66
2023-01-08T06:07:59.606Z,12.67
2023-01-08T06:10:26.663Z,12.67
2023-01-08T06:12:52.982Z,12.68
2023-01-08T06:15:19.348Z,12.68
2023-01-08T06:17:45.697Z,12.69
2023-01-08T06:20:12.162Z,12.69
2023-01-08T06:22:38.554Z,12.70
2023-01-08T06:25:05.245Z,12.71
2023-01-08T06:27:31.607Z,12.73
2023-01-08T06:29:58.022Z,12.71
2023-01-08T06:32:24.907Z,12.74
2023-01-08T06:34:51.263Z,12.73
2023-01-08T06:37:17.604Z,12.75
2023-01-08T06:39:43.991Z,12.76
2023-01-08T06:42:10.331Z,12.76
2023-01-08T06:44:36.683Z,12.76
2023-01-08T06:47:03.092Z,12.77
2023-01-08T06:49:29.400Z,12.77
2023-01-08T06:51:57.073Z,12.77
2023-01-08T06:54:23.491Z,12.78
2023-01-08T06:56:54.103Z,12.75
2023-01-08T06:59:20.922Z,12.74
2023-01-08T07:01:47.368Z,12.73
2023-01-08T07:04:13.828Z,12.73
2023-01-08T07:06:40.142Z,12.72
2023-01-08T07:09:06.597Z,12.71
2023-01-08T07:11:33.986Z,12.70
2023-01-08T07:14:00.349Z,12.69
2023-01-08T07:16:26.751Z,12.68
2023-01-08T07:18:53.188Z,12.67
2023-01-08T07:21:20.952Z,12.67
2023-01-08T07:23:49.100Z,12.67
2023-01-08T07:26:15.693Z,12.66
2023-01-08T07:28:42.371Z,12.65
2023-01-08T07:31:09.038Z,12.67
2023-01-08T07:33:35.849Z,12.67
2023-01-08T07:36:02.771Z,12.68
2023-01-08T07:38:29.347Z,12.68
2023-01-08T07:40:57.930Z,12.70
2023-01-08T07:43:25.162Z,12.69
2023-01-08T07:45:51.593Z,12.66
2023-01-08T07:48:17.916Z,12.63
2023-01-08T07:50:44.775Z,12.59
2023-01-08T07:53:13.714Z,12.55
2023-01-08T07:55:40.208Z,12.49
2023-01-08T07:58:11.113Z,12.43
2023-01-08T08:00:37.571Z,12.38
2023-01-08T08:03:06.215Z,12.36
2023-01-08T08:05:33.410Z,12.29
2023-01-08T08:07:59.819Z,12.26
2023-01-08T08:10:26.402Z,12.25
2023-01-08T08:12:52.708Z,12.21
2023-01-08T08:15:19.031Z,12.20
2023-01-08T08:17:47.352Z,12.18
2023-01-08T08:20:14.009Z,12.16
2023-01-08T08:22:40.405Z,12.15
2023-01-08T08:25:07.301Z,12.12
2023-01-08T08:27:33.673Z,12.10
2023-01-08T08:29:59.995Z,12.08
2023-01-08T08:32:26.359Z,12.06
2023-01-08T08:34:52.800Z,12.06
2023-01-08T08:37:19.154Z,12.05
2023-01-08T08:39:45.467Z,12.05
2023-01-08T08:42:11.807Z,12.04
2023-01-08T08:44:38.268Z,12.04
2023-01-08T08:47:08.974Z,12.03
2023-01-08T08:49:36.420Z,12.02
2023-01-08T08:52:03.936Z,12.01
2023-01-08T08:54:30.382Z,11.99
2023-01-08T08:56:56.740Z,11.97
2023-01-08T08:59:23.060Z,11.93
2023-01-08T09:01:49.585Z,11.90
2023-01-08T09:04:16.029Z,11.86
2023-01-08T09:06:42.391Z,11.82
2023-01-08T09:09:09.269Z,11.79
2023-01-08T09:11:35.633Z,11.77
2023-01-08T09:14:01.975Z,11.77
2023-01-08T09:16:28.417Z,11.76
2023-01-08T09:18:54.754Z,11.76
2023-01-08T09:21:21.109Z,11.77
2023-01-08T09:23:48.656Z,11.78
2023-01-08T09:26:15.353Z,11.78
2023-01-08T09:28:41.839Z,11.79
2023-01-08T09:31:08.197Z,11.76
2023-01-08T09:33:34.600Z,11.75
2023-01-08T09:36:00.931Z,11.73
2023-01-08T09:38:29.728Z,11.71
2023-01-08T09:41:00.973Z,11.70
2023-01-08T09:43:30.340Z,11.69
2023-01-08T09:46:00.732Z,11.69
2023-01-08T09:48:32.554Z,11.70
2023-01-08T09:50:58.996Z,11.70
2023-01-08T09:53:25.566Z,11.71
2023-01-08T09:56:09.003Z,11.73
2023-01-08T09:58:53.232Z,11.76
2023-01-08T10:01:28.842Z,11.78
2023-01-08T10:04:14.678Z,11.83
2023-01-08T10:06:45.930Z,11.85
2023-01-08T10:09:14.549Z,11.89
2023-01-08T10:11:44.565Z,11.92
2023-01-08T10:14:22.148Z,11.94
2023-01-08T10:16:53.814Z,11.99
2023-01-08T10:19:20.144Z,11.99
2023-01-08T10:21:47.018Z,12.02
2023-01-08T10:24:13.341Z,12.06
2023-01-08T10:26:39.769Z,12.08
2023-01-08T10:29:13.181Z,12.14
2023-01-08T10:31:55.395Z,12.17
2023-01-08T10:34:26.700Z,12.19
2023-01-08T10:36:54.642Z,12.22
2023-01-08T10:39:24.265Z,12.25
2023-01-08T10:41:53.844Z,12.28
2023-01-08T10:44:23.439Z,12.31
2023-01-08T10:46:54.728Z,12.34
2023-01-08T10:49:28.344Z,12.37
2023-01-08T10:51:55.613Z,12.40
2023-01-08T10:54:40.916Z,12.45
2023-01-08T10:57:25.624Z,12.49
2023-01-08T10:59:52.517Z,12.51
2023-01-08T11:02:39.171Z,12.55
2023-01-08T11:05:11.168Z,12.59
2023-01-08T11:07:40.111Z,12.61
2023-01-08T11:10:19.867Z,12.65
2023-01-08T11:12:46.782Z,12.68
2023-01-08T11:15:17.676Z,12.73
2023-01-08T11:17:44.525Z,12.76
2023-01-08T11:20:28.827Z,12.81
2023-01-08T11:23:19.984Z,12.86
2023-01-08T11:26:17.746Z,12.93
2023-01-08T11:29:06.611Z,12.98
2023-01-08T11:31:41.725Z,13.02
2023-01-08T11:34:18.284Z,13.08
2023-01-08T11:36:52.215Z,13.12
2023-01-08T11:39:19.374Z,13.14
2023-01-08T11:42:11.448Z,13.18
2023-01-08T11:44:55.856Z,13.22
2023-01-08T11:47:52.112Z,13.25
2023-01-08T11:50:32.127Z,13.30
2023-01-08T11:53:07.504Z,13.35
2023-01-08T11:55:47.451Z,13.40
2023-01-08T11:58:35.207Z,13.46
2023-01-08T12:01:40.098Z,13.55
2023-01-08T12:04:06.476Z,13.64
2023-01-08T12:06:40.321Z,13.74
2023-01-08T12:09:24.588Z,13.83
2023-01-08T12:11:57.003Z,13.90
2023-01-08T12:14:49.781Z,13.97
2023-01-08T12:17:40.535Z,14.03
2023-01-08T12:20:17.432Z,14.10
2023-01-08T12:22:59.044Z,14.12
2023-01-08T12:25:41.073Z,14.16
2023-01-08T12:28:32.403Z,14.22
2023-01-08T12:31:13.860Z,14.25
2023-01-08T12:33:51.117Z,14.28
2023-01-08T12:36:43.118Z,14.32
2023-01-08T12:39:18.751Z,14.34
2023-01-08T12:41:46.886Z,14.35
2023-01-08T12:44:22.577Z,14.35
2023-01-08T12:46:50.707Z,14.36
2023-01-08T12:49:26.787Z,14.36
2023-01-08T12:52:16.080Z,14.37
2023-01-08T12:54:51.575Z,14.37
2023-01-08T12:57:44.646Z,14.41
2023-01-08T13:00:37.888Z,14.43
2023-01-08T13:03:10.822Z,14.44
2023-01-08T13:05:37.884Z,14.44
2023-01-08T13:08:21.837Z,14.45
2023-01-08T13:10:52.208Z,14.47
2023-01-08T13:13:39.741Z,14.48
2023-01-08T13:16:06.991Z,14.48
2023-01-08T13:18:33.811Z,14.45
2023-01-08T13:21:02.170Z,14.44
2023-01-08T13:23:32.054Z,14.41
2023-01-08T13:26:00.474Z,14.38
2023-01-08T13:28:28.761Z,14.35
2023-01-08T13:31:06.577Z,14.31
2023-01-08T13:33:36.148Z,14.30
2023-01-08T13:36:17.557Z,14.27
2023-01-08T13:38:45.149Z,14.23
2023-01-08T13:41:57.900Z,14.22
2023-01-08T13:44:30.052Z,14.18
2023-01-08T13:46:59.043Z,14.13
2023-01-08T13:49:31.493Z,14.07
2023-01-08T13:51:57.940Z,14.00
2023-01-08T13:54:38.863Z,13.94
2023-01-08T13:57:12.252Z,13.86
2023-01-08T13:59:48.231Z,13.75
2023-01-08T14:02:50.599Z,13.67
2023-01-08T14:05:26.472Z,13.45
2023-01-08T14:07:52.964Z,13.25
2023-01-08T14:10:20.521Z,13.06
2023-01-08T14:12:47.730Z,12.92
2023-01-08T14:15:25.658Z,12.81
2023-01-08T14:17:53.271Z,12.73
2023-01-08T14:20:26.447Z,12.73
2023-01-08T14:22:52.894Z,12.76
2023-01-08T14:25:20.075Z,12.81
2023-01-08T14:27:55.618Z,12.85
2023-01-08T14:30:22.134Z,12.89
2023-01-08T14:32:49.136Z,12.91
2023-01-08T14:35:20.798Z,12.91
2023-01-08T14:37:47.132Z,12.90
2023-01-08T14:40:15.673Z,12.86
2023-01-08T14:42:44.401Z,12.80
2023-01-08T14:45:26.951Z,12.73
2023-01-08T14:47:56.435Z,12.63
2023-01-08T14:50:26.565Z,12.54
2023-01-08T14:52:57.565Z,12.43
2023-01-08T14:55:25.362Z,12.32
2023-01-08T14:57:54.876Z,12.19
2023-01-08T15:00:26.447Z,12.06
2023-01-08T15:02:52.867Z,11.95
2023-01-08T15:05:31.031Z,11.84
2023-01-08T15:08:32.480Z,11.72
2023-01-08T15:11:02.004Z,11.62
2023-01-08T15:13:33.895Z,11.53
2023-01-08T15:16:07.080Z,11.43
2023-01-08T15:18:43.102Z,11.35
2023-01-08T15:21:09.823Z,11.27
2023-01-08T15:23:46.330Z,11.20
2023-01-08T15:26:14.694Z,11.11
2023-01-08T15:28:58.749Z,11.04
2023-01-08T15:31:41.289Z,10.97
2023-01-08T15:34:08.221Z,10.89
2023-01-08T15:36:34.741Z,10.84
2023-01-08T15:39:01.061Z,10.78
2023-01-08T15:41:56.802Z,10.73
2023-01-08T15:44:24.731Z,10.70
2023-01-08T15:46:52.260Z,10.65
2023-01-08T15:49:18.633Z,10.61
2023-01-08T15:51:51.074Z,10.59
2023-01-08T15:54:19.105Z,10.54
2023-01-08T15:56:45.424Z,10.51
2023-01-08T15:59:12.141Z,10.47
2023-01-08T16:01:38.691Z,10.45
2023-01-08T16:04:05.137Z,10.41
2023-01-08T16:06:31.866Z,10.39
2023-01-08T16:09:00.264Z,10.38
2023-01-08T16:11:26.860Z,10.38
2023-01-08T16:13:53.274Z,10.38
2023-01-08T16:16:20.865Z,10.40
2023-01-08T16:18:47.314Z,10.42
2023-01-08T16:21:13.787Z,10.43
2023-01-08T16:23:41.335Z,10.43
2023-01-08T16:26:12.575Z,10.43
2023-01-08T16:28:39.016Z,10.39
2023-01-08T16:31:06.156Z,10.36
2023-01-08T16:33:32.974Z,10.32
2023-01-08T16:36:01.991Z,10.28
2023-01-08T16:38:28.927Z,10.22
2023-01-08T16:40:59.665Z,10.18
2023-01-08T16:43:29.010Z,10.13
2023-01-08T16:45:56.196Z,10.07
2023-01-08T16:48:23.774Z,10.02
2023-01-08T16:50:50.201Z,9.99
2023-01-08T16:53:21.520Z,9.95
2023-01-08T16:55:50.756Z,9.94
2023-01-08T16:58:17.200Z,9.92
2023-01-08T17:00:43.658Z,9.93
2023-01-08T17:03:10.164Z,9.93
2023-01-08T17:05:36.879Z,9.95
2023-01-08T17:08:03.447Z,9.95
2023-01-08T17:10:29.877Z,9.95
2023-01-08T17:12:56.241Z,9.95
2023-01-08T17:15:22.652Z,9.95
2023-01-08T17:17:49.090Z,9.95
2023-01-08T17:20:15.597Z,9.93
2023-01-08T17:22:41.992Z,9.92
2023-01-08T17:25:08.870Z,9.91
2023-01-08T17:27:35.516Z,9.89
2023-01-08T17:30:02.248Z,9.86
2023-01-08T17:32:30.227Z,9.82
2023-01-08T17:34:56.668Z,9.80
2023-01-08T17:37:23.010Z,9.77
2023-01-08T17:39:49.528Z,9.76
2023-01-08T17:42:24.800Z,9.75
2023-01-08T17:44:51.628Z,9.77
2023-01-08T17:47:19.810Z,9.77
2023-01-08T17:49:54.648Z,9.80
2023-01-08T17:52:23.208Z,9.82
2023-01-08T17:54:51.396Z,9.86
2023-01-08T17:57:19.276Z,9.89
2023-01-08T17:59:46.498Z,9.94
2023-01-08T18:02:16.038Z,9.98
2023-01-08T18:04:43.774Z,10.02
2023-01-08T18:07:10.134Z,10.05
2023-01-08T18:09:36.889Z,10.09
2023-01-08T18:12:03.562Z,10.13
2023-01-08T18:14:29.949Z,10.16
2023-01-08T18:16:56.471Z,10.20
2023-01-08T18:19:23.010Z,10.24
2023-01-08T18:21:49.346Z,10.26
2023-01-08T18:24:15.988Z,10.28
2023-01-08T18:26:43.218Z,10.31
2023-01-08T18:29:09.569Z,10.32
2023-01-08T18:31:36.635Z,10.34
2023-01-08T18:34:03.809Z,10.34
2023-01-08T18:36:30.302Z,10.33
2023-01-08T18:38:57.751Z,10.33
2023-01-08T18:41:42.983Z,10.29
2023-01-08T18:44:10.185Z,10.24
2023-01-08T18:46:37.443Z,10.19
2023-01-08T18:49:04.845Z,10.14
2023-01-08T18:51:31.247Z,10.08
2023-01-08T18:53:57.982Z,10.04
2023-01-08T18:56:29.401Z,10.02
2023-01-08T18:58:56.479Z,10.00
2023-01-08T19:01:23.823Z,10.00
2023-01-08T19:03:50.255Z,10.00
2023-01-08T19:06:17.580Z,10.01
2023-01-08T19:08:45.463Z,10.03
2023-01-08T19:11:11.916Z,10.05
2023-01-08T19:13:38.780Z,10.06
2023-01-08T19:16:11.137Z,10.08
2023-01-08T19:18:38.564Z,10.06
2023-01-08T19:21:06.960Z,10.04
2023-01-08T19:23:33.910Z,10.01
2023-01-08T19:26:04.466Z,9.98
2023-01-08T19:28:30.826Z,9.93
2023-01-08T19:30:58.901Z,9.89
2023-01-08T19:33:25.677Z,9.83
2023-01-08T19:35:52.282Z,9.80
2023-01-08T19:38:19.232Z,9.75
2023-01-08T19:40:45.725Z,9.71
2023-01-08T19:43:31.196Z,9.65
2023-01-08T19:46:05.024Z,9.62
2023-01-08T19:48:31.619Z,9.58
2023-01-08T19:50:57.958Z,9.54
2023-01-08T19:53:24.333Z,9.49
2023-01-08T19:55:50.729Z,9.45
2023-01-08T19:58:18.514Z,9.42
2023-01-08T20:00:44.951Z,9.39
2023-01-08T20:03:11.366Z,9.34
2023-01-08T20:05:42.102Z,9.33
2023-01-08T20:08:08.411Z,9.29
2023-01-08T20:10:34.861Z,9.25
2023-01-08T20:13:01.201Z,9.22
2023-01-08T20:15:28.903Z,9.17
2023-01-08T20:17:55.317Z,9.15
2023-01-08T20:20:21.656Z,9.12
2023-01-08T20:22:48.259Z,9.10
2023-01-08T20:25:14.777Z,9.08
2023-01-08T20:27:41.173Z,9.05
2023-01-08T20:30:10.248Z,9.01
2023-01-08T20:32:36.860Z,9.00
2023-01-08T20:35:04.739Z,8.96
2023-01-08T20:37:31.190Z,8.94
2023-01-08T20:39:57.723Z,8.91
2023-01-08T20:42:33.335Z,8.88
2023-01-08T20:45:00.616Z,8.86
2023-01-08T20:47:27.010Z,8.83
2023-01-08T20:49:53.371Z,8.82
2023-01-08T20:52:19.673Z,8.81
2023-01-08T20:54:46.149Z,8.81
2023-01-08T20:57:12.569Z,8.80
2023-01-08T20:59:38.912Z,8.77
2023-01-08T21:02:06.110Z,8.77
2023-01-08T21:04:32.809Z,8.75
2023-01-08T21:06:59.192Z,8.73
2023-01-08T21:09:25.601Z,8.72
2023-01-08T21:11:52.083Z,8.70
2023-01-08T21:14:18.455Z,8.70
2023-01-08T21:16:44.950Z,8.72
2023-01-08T21:19:11.558Z,8.74
2023-01-08T21:21:40.276Z,8.80
2023-01-08T21:24:08.942Z,8.86
2023-01-08T21:26:36.997Z,8.92
2023-01-08T21:29:05.856Z,8.99
2023-01-08T21:31:32.931Z,9.07
2023-01-08T21:34:00.253Z,9.14
2023-01-08T21:36:28.671Z,9.22
2023-01-08T21:38:59.360Z,9.30
2023-01-08T21:41:46.347Z,9.35
2023-01-08T21:44:37.541Z,9.43
2023-01-08T21:47:06.715Z,9.50
2023-01-08T21:49:33.104Z,9.54
2023-01-08T21:52:17.914Z,9.55
2023-01-08T21:54:44.239Z,9.55
2023-01-08T21:57:10.896Z,9.54
2023-01-08T21:59:37.459Z,9.52
2023-01-08T22:02:05.134Z,9.50
2023-01-08T22:04:31.690Z,9.46
2023-01-08T22:06:58.886Z,9.43
2023-01-08T22:09:25.231Z,9.39
2023-01-08T22:11:51.551Z,9.35
2023-01-08T22:14:18.122Z,9.32
2023-01-08T22:16:44.510Z,9.27
2023-01-08T22:19:10.991Z,9.25
2023-01-08T22:21:39.097Z,9.22
2023-01-08T22:24:06.080Z,9.21
2023-01-08T22:26:35.009Z,9.20
2023-01-08T22:29:02.660Z,9.20
2023-01-08T22:31:29.087Z,9.21
2023-01-08T22:33:56.411Z,9.22
2023-01-08T22:36:23.176Z,9.25
2023-01-08T22:38:49.580Z,9.26
2023-01-08T22:41:21.563Z,9.27
2023-01-08T22:43:48.252Z,9.29
2023-01-08T22:46:16.213Z,9.29
2023-01-08T22:48:43.787Z,9.30
2023-01-08T22:51:10.841Z,9.31
2023-01-08T22:53:37.591Z,9.32
2023-01-08T22:56:11.875Z,9.33
2023-01-08T22:58:42.316Z,9.33
2023-01-08T23:01:18.126Z,9.34
2023-01-08T23:03:44.681Z,9.37
2023-01-08T23:06:16.274Z,9.38
2023-01-08T23:08:44.449Z,9.40
2023-01-08T23:11:14.157Z,9.42
2023-01-08T23:13:41.229Z,9.43
2023-01-08T23:16:11.380Z,9.47
2023-01-08T23:18:39.455Z,9.50
2023-01-08T23:21:11.599Z,9.56
2023-01-08T23:23:38.152Z,9.60
2023-01-08T23:26:12.483Z,9.65
2023-01-08T23:28:39.655Z,9.71
2023-01-08T23:31:11.314Z,9.76
2023-01-08T23:33:37.749Z,9.79
2023-01-08T23:36:05.434Z,9.85
2023-01-08T23:38:31.929Z,9.89
2023-01-08T23:40:58.489Z,9.94
2023-01-08T23:43:25.277Z,9.99
2023-01-08T23:45:51.755Z,10.02
2023-01-08T23:48:18.647Z,10.05
2023-01-08T23:50:45.024Z,10.09
2023-01-08T23:53:11.401Z,10.13
2023-01-08T23:55:37.840Z,10.15
2023-01-08T23:58:04.233Z,10.19
